Pagina principale
METAR-TAF:

METAR-TAF

Aeroporti :

Ardabil, Iran

latitudine: 38-19-35N, longitudine: 048-25-28E, altezza: 1315 m

Osservazione

Il bollettino è stato emesso 17 minuti fa, alle 06:00 UTC
Vento 4 kt da sud/sud-ovest
Temperature 0°C
Umidità 93%
Pressione 1027 hPa
Visibilità: 2000 m
Nuvoloso ad un'altezza di 400 ft
Nuvoloso ad un'altezza di 2000 ft
Poco nuvoloso ad un'altezza di 3000 ft, Cumulonembo.
Cielo coperto ad un'altezza di 7000 ft
neve debole, Parzialmente coperto da nebbia, foschia

METAR: OITL 180600Z 20004KT 2000 -SN PRFG BR BKN004 BKN020 FEW030CB OVC070 M00/M01 Q1027

Ora: 09:47 (06:17 UTC)


TAF: mancante

Osservazioni e previsioni meteorologiche di più di 4000 aeroporti (messaggi METAR e TAF).

Le stazioni disponibili sono rappresentate dai dischi gialli e rossi sulla carta.

Puntare il mouse per vedere il nome della stazione.

Clicca sopra per visualizzare le osservazioni e previsioni meteorologiche.

Per cambiare la mappa : fare clic sui pulsanti verdi con una croce nera per ingrandire, il pulsante verde con un trattino per diminuire, o sulla freccia verde per le mappe adiacenti.


METAR-TAF: